Time;durP1;ratioP1;P1;durP2;ratioP2;P2;SDS_P1;SDS_P2;PMS_P1;PMS_P2;Temp;Humidity;BMP_temperature;BMP_pressure;BME280_temperature;BME280_humidity;BME280_pressure;Samples;Min_cycle;Max_cycle;Signal;HPM_P1;HPM_P2
2023/12/30 00:00:29;;;;;;;;;;;;;;;27.04;21.03;97743.56;5066299;28;20010;-88
2023/12/30 00:02:55;;;;;;;;;;;;;;;27.26;20.76;97746.31;5071438;28;19952;-88
2023/12/30 00:05:23;;;;;;;;;;;;;;;27.38;20.33;97743.44;5071461;28;20441;-88
2023/12/30 00:07:49;;;;;;;;;;;;;;;27.53;20.16;97751.31;5067863;28;19920;-88
2023/12/30 00:10:15;;;;;;;;;;;;;;;27.66;19.98;97754.78;5070773;28;19927;-89
2023/12/30 00:12:41;;;;;;;;;;;;;;;27.08;20.76;97763.16;5072367;28;19926;-88
2023/12/30 00:15:08;;;;;;;;;;;;;;;27.33;20.25;97749.63;5051071;28;19928;-88
2023/12/30 00:17:34;;;;;;;;;;;;;;;27.05;20.46;97756.41;5071797;28;19932;-89
2023/12/30 00:20:00;;;;;;;;;;;;;;;26.53;20.92;97753.56;5066631;28;19924;-89
2023/12/30 00:22:26;;;;;;;;;;;;;;;27.43;20.11;97750.50;5071197;28;19977;-89
2023/12/30 00:24:52;;;;;;;;;;;;;;;27.88;19.50;97739.34;5069515;28;19928;-89
2023/12/30 00:27:18;;;;;;;;;;;;;;;27.79;19.50;97747.78;5067833;28;20008;-89
2023/12/30 00:29:44;;;;;;;;;;;;;;;27.89;19.53;97745.75;5068210;28;20011;-88
2023/12/30 00:32:10;;;;;;;;;;;;;;;27.79;19.55;97747.00;5070369;28;19924;-88
2023/12/30 00:34:36;;;;;;;;;;;;;;;28.06;19.21;97747.84;5071719;28;19982;-88
2023/12/30 00:37:02;;;;;;;;;;;;;;;28.23;19.11;97739.84;5067072;28;19952;-88
2023/12/30 00:39:28;;;;;;;;;;;;;;;28.34;18.96;97730.88;5071355;28;19970;-88
2023/12/30 00:41:54;;;;;;;;;;;;;;;28.04;19.25;97739.06;5069466;28;19963;-89
2023/12/30 00:44:20;;;;;;;;;;;;;;;28.03;19.28;97742.34;5066042;28;19927;-88
2023/12/30 00:46:46;;;;;;;;;;;;;;;27.73;19.33;97740.38;5067819;28;19978;-88
2023/12/30 00:49:13;;;;;;;;;;;;;;;27.68;19.30;97730.50;5067694;28;19956;-88
2023/12/30 00:51:39;;;;;;;;;;;;;;;27.44;19.69;97737.97;5067638;28;19920;-88
2023/12/30 00:54:05;;;;;;;;;;;;;;;27.46;19.59;97737.50;5069072;28;20414;-88
2023/12/30 00:56:31;;;;;;;;;;;;;;;27.49;19.74;97733.75;5070726;28;19950;-88
2023/12/30 00:58:57;;;;;;;;;;;;;;;27.56;19.65;97731.44;5068328;28;19925;-88
2023/12/30 01:01:23;;;;;;;;;;;;;;;27.22;19.77;97720.31;5065807;28;19920;-88
2023/12/30 01:03:49;;;;;;;;;;;;;;;27.53;19.66;97718.25;5067362;28;19928;-88
2023/12/30 01:06:15;;;;;;;;;;;;;;;27.72;19.52;97721.91;5051328;28;20862;-88
2023/12/30 01:08:41;;;;;;;;;;;;;;;26.91;20.19;97723.13;5066505;28;19929;-89
2023/12/30 01:11:07;;;;;;;;;;;;;;;26.86;20.24;97723.75;5067905;28;19947;-89
2023/12/30 01:13:33;;;;;;;;;;;;;;;27.42;19.91;97727.13;5064630;28;19920;-89
2023/12/30 01:16:03;;;;;;;;;;;;;;;27.31;20.12;97720.34;5066256;28;19967;-89
2023/12/30 01:18:29;;;;;;;;;;;;;;;27.46;20.08;97727.00;5065831;28;20023;-89
2023/12/30 01:20:55;;;;;;;;;;;;;;;27.45;19.97;97722.59;5066964;28;19999;-88
2023/12/30 01:23:21;;;;;;;;;;;;;;;27.84;19.57;97723.81;5049668;28;19932;-89
2023/12/30 01:25:48;;;;;;;;;;;;;;;27.01;20.58;97719.13;5068296;28;19928;-89
2023/12/30 01:28:14;;;;;;;;;;;;;;;26.85;20.53;97727.03;5069043;28;19920;-90
2023/12/30 01:30:40;;;;;;;;;;;;;;;26.90;20.55;97723.63;5066731;28;20011;-89
2023/12/30 01:33:06;;;;;;;;;;;;;;;26.81;20.86;97715.91;5067036;28;19966;-88
2023/12/30 01:35:32;;;;;;;;;;;;;;;27.36;20.29;97705.63;5067697;28;19921;-89
2023/12/30 01:37:58;;;;;;;;;;;;;;;27.45;20.09;97716.97;5067198;28;19948;-89
2023/12/30 01:40:27;;;;;;;;;;;;;;;27.56;20.19;97708.06;5066941;28;19978;-89
2023/12/30 01:42:53;;;;;;;;;;;;;;;27.62;19.97;97715.44;5066759;28;19920;-89
2023/12/30 01:45:19;;;;;;;;;;;;;;;27.90;19.74;97711.41;5067305;28;19955;-89
2023/12/30 01:47:45;;;;;;;;;;;;;;;28.32;19.02;97702.34;5066856;28;20343;-89
2023/12/30 01:50:11;;;;;;;;;;;;;;;28.16;19.41;97706.28;5066408;28;20007;-89
2023/12/30 01:52:37;;;;;;;;;;;;;;;27.60;20.12;97705.88;5049367;28;20289;-88
2023/12/30 01:55:04;;;;;;;;;;;;;;;27.90;19.83;97714.25;5068372;28;19920;-88
2023/12/30 01:57:31;;;;;;;;;;;;;;;27.94;19.68;97697.94;5067054;28;19924;-88
2023/12/30 01:59:58;;;;;;;;;;;;;;;27.91;19.80;97704.50;5067842;28;20011;-88
2023/12/30 02:02:24;;;;;;;;;;;;;;;27.94;19.88;97706.41;5066226;28;19928;-88
2023/12/30 02:04:50;;;;;;;;;;;;;;;28.34;19.43;97685.72;5066811;28;19931;-88
2023/12/30 02:07:16;;;;;;;;;;;;;;;28.43;19.27;97685.69;5067304;28;20380;-88
2023/12/30 02:09:42;;;;;;;;;;;;;;;28.80;18.91;97675.91;5067603;28;20388;-89
2023/12/30 02:12:08;;;;;;;;;;;;;;;28.58;19.14;97664.03;5065826;28;19924;-89
2023/12/30 02:14:34;;;;;;;;;;;;;;;27.78;19.83;97681.31;5066842;28;20000;-89
2023/12/30 02:17:00;;;;;;;;;;;;;;;27.88;19.49;97685.72;5068824;28;19925;-88
2023/12/30 02:19:26;;;;;;;;;;;;;;;28.31;19.41;97676.16;5069716;28;19927;-89
2023/12/30 02:21:52;;;;;;;;;;;;;;;28.04;19.74;97671.31;5069189;28;19924;-86
2023/12/30 02:24:18;;;;;;;;;;;;;;;28.01;19.78;97660.16;5068697;28;19927;-89
2023/12/30 02:26:44;;;;;;;;;;;;;;;28.33;19.53;97661.56;5067843;28;19958;-89
2023/12/30 02:29:10;;;;;;;;;;;;;;;28.10;19.58;97665.81;5069091;28;19947;-88
2023/12/30 02:31:39;;;;;;;;;;;;;;;27.28;20.50;97664.91;5063882;28;19961;-88
2023/12/30 02:34:05;;;;;;;;;;;;;;;27.13;20.59;97661.09;5060609;28;19927;-88
2023/12/30 02:36:31;;;;;;;;;;;;;;;26.93;20.93;97657.91;5065038;28;19932;-88
2023/12/30 02:38:57;;;;;;;;;;;;;;;27.05;20.77;97662.66;5064135;28;19931;-88
2023/12/30 02:41:23;;;;;;;;;;;;;;;27.40;20.61;97664.00;5065212;28;19943;-88
2023/12/30 02:43:54;;;;;;;;;;;;;;;27.26;20.81;97654.06;5064814;28;19946;-89
2023/12/30 02:46:20;;;;;;;;;;;;;;;27.59;20.34;97665.59;5065947;28;20331;-88
2023/12/30 02:48:46;;;;;;;;;;;;;;;27.29;20.54;97664.44;5063660;28;19921;-88
2023/12/30 02:51:15;;;;;;;;;;;;;;;26.98;20.77;97665.75;5068585;28;20015;-89
2023/12/30 02:53:41;;;;;;;;;;;;;;;26.97;20.84;97655.72;5049435;28;20281;-89
2023/12/30 02:56:17;;;;;;;;;;;;;;;27.01;21.04;97650.72;5065890;28;19939;-89
2023/12/30 02:58:43;;;;;;;;;;;;;;;27.03;20.85;97656.66;5068748;28;19927;-89
2023/12/30 03:01:09;;;;;;;;;;;;;;;26.91;21.03;97654.75;5052020;28;19920;-89
2023/12/30 03:03:35;;;;;;;;;;;;;;;26.58;21.34;97643.91;5068601;28;19920;-89
2023/12/30 03:06:01;;;;;;;;;;;;;;;27.06;20.98;97642.44;5069709;28;19944;-89
2023/12/30 03:08:27;;;;;;;;;;;;;;;26.12;22.07;97638.47;5053144;28;19920;-89
2023/12/30 03:10:53;;;;;;;;;;;;;;;26.17;22.54;97647.13;5070037;28;19943;-89
2023/12/30 03:13:19;;;;;;;;;;;;;;;26.97;21.20;97642.41;5065588;28;19981;-89
2023/12/30 03:15:44;;;;;;;;;;;;;;;27.27;20.70;97633.09;5050861;28;19924;-89
2023/12/30 03:18:10;;;;;;;;;;;;;;;26.81;21.05;97631.41;5069537;28;19921;-89
2023/12/30 03:20:36;;;;;;;;;;;;;;;26.83;21.21;97628.91;5068701;28;19920;-89
2023/12/30 03:23:02;;;;;;;;;;;;;;;26.81;21.40;97624.97;5068098;28;20384;-90
2023/12/30 03:25:28;;;;;;;;;;;;;;;27.10;20.84;97628.97;5068522;28;19926;-89
2023/12/30 03:27:54;;;;;;;;;;;;;;;26.87;21.25;97623.91;5068122;28;19929;-89
2023/12/30 03:30:20;;;;;;;;;;;;;;;25.90;21.82;97625.19;5065532;28;19916;-89
2023/12/30 03:32:46;;;;;;;;;;;;;;;26.56;21.70;97618.25;5066639;28;19928;-89
2023/12/30 03:35:12;;;;;;;;;;;;;;;26.93;21.07;97612.81;5047863;28;19921;-89
2023/12/30 03:37:38;;;;;;;;;;;;;;;27.57;20.56;97614.53;5066592;28;20399;-89
2023/12/30 03:40:05;;;;;;;;;;;;;;;27.84;19.97;97611.69;5066398;28;19920;-88
2023/12/30 03:42:31;;;;;;;;;;;;;;;27.94;19.81;97604.00;5065610;28;19920;-89
2023/12/30 03:44:57;;;;;;;;;;;;;;;27.89;19.84;97602.59;5049636;28;20269;-89
2023/12/30 03:47:23;;;;;;;;;;;;;;;27.78;19.83;97599.50;5064607;28;19921;-89
2023/12/30 03:49:49;;;;;;;;;;;;;;;27.88;19.76;97597.44;5061226;28;19924;-88
2023/12/30 03:52:15;;;;;;;;;;;;;;;27.28;20.47;97614.16;5065637;28;19925;-89
2023/12/30 03:54:41;;;;;;;;;;;;;;;27.60;20.22;97605.13;5062727;28;19947;-89
2023/12/30 03:57:07;;;;;;;;;;;;;;;27.08;20.57;97602.50;5065974;28;19940;-88
2023/12/30 03:59:33;;;;;;;;;;;;;;;27.51;20.27;97596.69;5064638;28;20530;-88
2023/12/30 04:01:59;;;;;;;;;;;;;;;27.14;20.75;97600.66;5060967;28;19928;-88
2023/12/30 04:04:25;;;;;;;;;;;;;;;26.81;22.57;97600.41;5064665;28;19926;-88
2023/12/30 04:06:51;;;;;;;;;;;;;;;26.93;20.88;97610.00;5064792;28;20277;-89
2023/12/30 04:09:17;;;;;;;;;;;;;;;26.83;20.79;97614.81;5066543;28;19931;-88
2023/12/30 04:11:43;;;;;;;;;;;;;;;26.79;20.72;97619.03;5049046;28;19924;-88
2023/12/30 04:14:09;;;;;;;;;;;;;;;26.78;21.06;97620.25;5063854;28;20384;-88
2023/12/30 04:16:35;;;;;;;;;;;;;;;26.58;21.24;97617.81;5065229;28;20024;-88
2023/12/30 04:19:01;;;;;;;;;;;;;;;27.14;20.38;97615.53;5066209;28;19916;-88
2023/12/30 04:21:27;;;;;;;;;;;;;;;27.75;19.81;97616.59;5048015;28;19932;-88
2023/12/30 04:23:53;;;;;;;;;;;;;;;27.48;20.03;97627.84;5065293;28;19924;-88
2023/12/30 04:26:19;;;;;;;;;;;;;;;26.68;20.72;97622.22;5069768;28;19920;-89
2023/12/30 04:28:46;;;;;;;;;;;;;;;26.85;20.89;97614.34;5067145;28;19986;-88
2023/12/30 04:31:12;;;;;;;;;;;;;;;26.81;20.56;97622.94;5066026;28;20384;-89
2023/12/30 04:33:38;;;;;;;;;;;;;;;27.11;20.62;97621.31;5069222;28;20301;-89
2023/12/30 04:36:04;;;;;;;;;;;;;;;27.45;19.90;97614.66;5068277;28;19920;-88
2023/12/30 04:38:30;;;;;;;;;;;;;;;27.84;19.43;97602.47;5065460;28;20265;-88
2023/12/30 04:40:56;;;;;;;;;;;;;;;27.57;19.61;97599.63;5065942;28;19942;-87
2023/12/30 04:43:22;;;;;;;;;;;;;;;27.48;19.87;97600.44;5065017;28;19960;-87
2023/12/30 04:45:48;;;;;;;;;;;;;;;27.28;20.00;97605.72;5065269;28;19975;-87
2023/12/30 04:48:14;;;;;;;;;;;;;;;26.80;20.76;97612.13;5068253;28;19938;-87
2023/12/30 04:50:40;;;;;;;;;;;;;;;25.79;21.35;97621.19;5068471;28;19928;-87
2023/12/30 04:53:06;;;;;;;;;;;;;;;24.58;24.65;97612.38;5072637;28;20376;-89
2023/12/30 04:55:32;;;;;;;;;;;;;;;25.39;21.88;97618.16;5069412;28;19924;-88
2023/12/30 04:57:58;;;;;;;;;;;;;;;26.03;21.19;97627.91;5069549;28;19929;-88
2023/12/30 05:00:24;;;;;;;;;;;;;;;25.65;21.67;97630.13;5069165;28;19982;-88
2023/12/30 05:02:50;;;;;;;;;;;;;;;25.12;22.23;97641.13;5068634;28;19921;-88
2023/12/30 05:05:16;;;;;;;;;;;;;;;25.67;21.70;97627.66;5065796;28;19973;-88
2023/12/30 05:07:42;;;;;;;;;;;;;;;25.87;21.25;97617.66;5068943;28;19931;-88
2023/12/30 05:10:09;;;;;;;;;;;;;;;25.99;21.21;97625.25;5069067;28;19961;-88
2023/12/30 05:12:35;;;;;;;;;;;;;;;25.42;21.88;97631.28;5065943;28;19920;-89
2023/12/30 05:15:02;;;;;;;;;;;;;;;25.31;21.78;97634.47;5053721;28;20297;-88
2023/12/30 05:17:29;;;;;;;;;;;;;;;25.57;21.81;97635.22;5070056;28;20015;-88
2023/12/30 05:19:55;;;;;;;;;;;;;;;26.49;20.70;97638.25;5068813;28;19978;-89
2023/12/30 05:22:21;;;;;;;;;;;;;;;26.48;20.78;97650.75;5070785;28;19950;-88
2023/12/30 05:24:47;;;;;;;;;;;;;;;26.25;20.73;97640.00;5069859;28;19978;-88
2023/12/30 05:27:13;;;;;;;;;;;;;;;26.67;20.42;97635.53;5068489;28;20380;-89
2023/12/30 05:29:39;;;;;;;;;;;;;;;27.32;19.97;97648.63;5068332;28;19920;-89
2023/12/30 05:32:05;;;;;;;;;;;;;;;27.00;20.09;97641.47;5069386;28;19974;-89
2023/12/30 05:34:31;;;;;;;;;;;;;;;27.11;20.00;97652.31;5070597;28;19942;-89
2023/12/30 05:36:57;;;;;;;;;;;;;;;27.09;20.39;97663.28;5065659;28;19932;-89
2023/12/30 05:39:23;;;;;;;;;;;;;;;27.46;19.80;97661.34;5067826;28;20432;-89
2023/12/30 05:41:49;;;;;;;;;;;;;;;28.04;19.52;97645.13;5049127;28;19920;-89
2023/12/30 05:44:15;;;;;;;;;;;;;;;26.93;20.31;97658.69;5068038;28;20343;-89
2023/12/30 05:46:41;;;;;;;;;;;;;;;27.59;19.72;97665.59;5067625;28;19920;-89
2023/12/30 05:49:07;;;;;;;;;;;;;;;27.44;19.54;97680.78;5068134;28;20425;-89
2023/12/30 05:51:33;;;;;;;;;;;;;;;27.39;19.69;97685.00;5067896;28;19930;-89
2023/12/30 05:53:59;;;;;;;;;;;;;;;27.21;20.04;97688.50;5067551;28;20019;-89
2023/12/30 05:56:28;;;;;;;;;;;;;;;27.82;19.56;97684.00;5069290;28;19916;-89
2023/12/30 05:58:55;;;;;;;;;;;;;;;28.31;19.03;97678.97;5070108;28;20446;-88
2023/12/30 06:01:21;;;;;;;;;;;;;;;28.61;18.51;97677.25;5067467;28;19990;-87
2023/12/30 06:03:47;;;;;;;;;;;;;;;28.33;18.73;97684.16;5067002;28;20273;-87
2023/12/30 06:06:13;;;;;;;;;;;;;;;27.78;19.32;97697.44;5048814;28;19921;-90
2023/12/30 06:08:39;;;;;;;;;;;;;;;28.06;18.97;97687.78;5068313;28;19927;-89
2023/12/30 06:11:05;;;;;;;;;;;;;;;28.08;19.08;97688.88;5070514;28;20376;-89
2023/12/30 06:13:32;;;;;;;;;;;;;;;28.33;18.66;97687.78;5069797;28;19980;-89
2023/12/30 06:15:58;;;;;;;;;;;;;;;28.30;18.72;97691.53;5070563;28;19966;-89
2023/12/30 06:18:30;;;;;;;;;;;;;;;28.34;18.53;97685.72;5070532;28;19920;-89
2023/12/30 06:20:57;;;;;;;;;;;;;;;28.36;18.84;97692.47;5069735;28;20020;-89
2023/12/30 06:23:23;;;;;;;;;;;;;;;28.40;18.58;97703.59;5067577;28;19924;-89
2023/12/30 06:25:49;;;;;;;;;;;;;;;28.47;18.49;97708.94;5066313;28;19939;-89
2023/12/30 06:28:15;;;;;;;;;;;;;;;28.39;18.57;97708.47;5066835;28;19921;-89
2023/12/30 06:30:41;;;;;;;;;;;;;;;28.34;18.43;97708.31;5063315;28;19956;-89
2023/12/30 06:33:07;;;;;;;;;;;;;;;28.25;18.55;97714.75;5066547;28;20358;-89
2023/12/30 06:35:39;;;;;;;;;;;;;;;28.00;18.88;97717.88;5070209;28;19935;-89
2023/12/30 06:38:05;;;;;;;;;;;;;;;28.03;18.69;97722.56;5065945;28;19921;-89
2023/12/30 06:40:31;;;;;;;;;;;;;;;28.19;18.59;97721.50;5049584;28;19928;-88
2023/12/30 06:42:57;;;;;;;;;;;;;;;28.19;18.67;97716.66;5064951;28;20011;-88
2023/12/30 06:45:23;;;;;;;;;;;;;;;28.00;18.93;97718.69;5047521;28;19920;-88
2023/12/30 06:47:49;;;;;;;;;;;;;;;27.88;18.98;97730.06;5052186;28;19921;-88
2023/12/30 06:50:15;;;;;;;;;;;;;;;27.73;18.95;97724.25;5067914;28;19981;-88
2023/12/30 06:52:41;;;;;;;;;;;;;;;27.53;19.01;97728.75;5064410;28;19971;-88
2023/12/30 06:55:08;;;;;;;;;;;;;;;27.49;19.08;97726.09;5048679;28;19925;-88
2023/12/30 06:57:34;;;;;;;;;;;;;;;27.52;19.16;97718.69;5070681;28;19927;-89
2023/12/30 07:00:00;;;;;;;;;;;;;;;27.71;19.08;97718.28;5066949;28;19920;-89
2023/12/30 07:02:26;;;;;;;;;;;;;;;27.76;18.85;97723.31;5067935;28;19920;-89
2023/12/30 07:04:52;;;;;;;;;;;;;;;27.62;19.22;97723.13;5052761;28;19920;-89
2023/12/30 07:07:18;;;;;;;;;;;;;;;27.62;19.13;97721.09;5068174;28;19920;-88
2023/12/30 07:09:44;;;;;;;;;;;;;;;27.73;19.07;97729.09;5045931;28;20074;-88
2023/12/30 07:12:12;;;;;;;;;;;;;;;27.86;19.11;97722.09;5067988;28;20380;-89
2023/12/30 07:14:38;;;;;;;;;;;;;;;27.94;18.97;97725.38;5066560;28;20023;-89
2023/12/30 07:17:04;;;;;;;;;;;;;;;27.66;19.21;97733.00;5069374;28;20073;-89
2023/12/30 07:19:30;;;;;;;;;;;;;;;27.46;19.72;97743.13;5063365;28;20415;-88
2023/12/30 07:21:56;;;;;;;;;;;;;;;27.55;19.50;97746.78;5064797;28;20363;-89
2023/12/30 07:24:22;;;;;;;;;;;;;;;27.83;19.40;97744.78;5065179;28;19971;-86
2023/12/30 07:26:48;;;;;;;;;;;;;;;27.93;19.46;97744.34;5063196;28;19920;-86
2023/12/30 07:29:14;;;;;;;;;;;;;;;28.10;19.31;97747.66;5062635;28;20005;-85
2023/12/30 07:31:40;;;;;;;;;;;;;;;28.02;19.29;97741.56;5062973;28;20410;-86
2023/12/30 07:34:06;;;;;;;;;;;;;;;28.12;19.33;97747.22;5065816;28;19964;-85
2023/12/30 07:36:32;;;;;;;;;;;;;;;27.81;19.79;97753.75;5068045;28;19951;-86
2023/12/30 07:38:58;;;;;;;;;;;;;;;27.76;19.88;97751.53;5065356;28;19921;-86
2023/12/30 07:41:24;;;;;;;;;;;;;;;27.38;20.40;97745.44;5067173;28;19940;-87
2023/12/30 07:43:50;;;;;;;;;;;;;;;27.47;20.37;97737.03;5046649;28;20281;-88
2023/12/30 07:46:16;;;;;;;;;;;;;;;27.93;20.22;97744.34;5064700;28;19921;-87
2023/12/30 07:48:43;;;;;;;;;;;;;;;27.76;20.23;97742.28;5068492;28;19989;-89
2023/12/30 07:51:09;;;;;;;;;;;;;;;27.65;20.42;97754.00;5067582;28;20348;-88
2023/12/30 07:53:35;;;;;;;;;;;;;;;27.85;20.21;97760.00;5075248;28;19948;-89
2023/12/30 07:56:02;;;;;;;;;;;;;;;27.80;20.19;97763.44;5066865;28;19929;-88
2023/12/30 07:58:28;;;;;;;;;;;;;;;28.00;20.07;97766.66;5066728;28;19928;-86
2023/12/30 08:00:54;;;;;;;;;;;;;;;28.25;20.04;97759.13;5067507;28;20386;-88
2023/12/30 08:03:20;;;;;;;;;;;;;;;28.29;19.93;97756.94;5067074;28;20380;-88
2023/12/30 08:05:46;;;;;;;;;;;;;;;27.57;20.30;97746.28;5067151;28;20015;-88
2023/12/30 08:08:13;;;;;;;;;;;;;;;27.57;20.60;97755.56;5062768;28;20007;-89
2023/12/30 08:10:39;;;;;;;;;;;;;;;27.82;20.34;97751.72;5066118;28;19921;-89
2023/12/30 08:13:05;;;;;;;;;;;;;;;28.21;19.90;97758.50;5068407;28;19966;-88
2023/12/30 08:15:31;;;;;;;;;;;;;;;28.11;19.99;97762.56;5066703;28;19999;-90
2023/12/30 08:17:57;;;;;;;;;;;;;;;28.32;20.01;97770.13;5048744;28;19924;-87
2023/12/30 08:20:23;;;;;;;;;;;;;;;28.01;20.25;97761.78;5062368;28;19920;-88
2023/12/30 08:22:50;;;;;;;;;;;;;;;27.91;20.32;97772.22;5063795;28;19947;-88
2023/12/30 08:25:16;;;;;;;;;;;;;;;28.23;19.97;97767.28;5065147;28;19973;-85
2023/12/30 08:27:42;;;;;;;;;;;;;;;27.69;21.24;97771.56;5067706;28;19925;-86
2023/12/30 08:30:08;;;;;;;;;;;;;;;28.03;20.30;97777.00;5066865;28;19978;-87
2023/12/30 08:32:34;;;;;;;;;;;;;;;27.92;20.33;97771.00;5068521;28;20380;-85
2023/12/30 08:35:02;;;;;;;;;;;;;;;28.40;19.98;97774.97;5068443;28;19927;-86
2023/12/30 08:37:29;;;;;;;;;;;;;;;28.15;20.02;97768.84;5068605;28;19947;-86
2023/12/30 08:39:55;;;;;;;;;;;;;;;27.49;20.49;97765.56;5068573;28;19969;-89
2023/12/30 08:42:22;;;;;;;;;;;;;;;27.68;20.52;97764.34;5072033;28;19921;-88
2023/12/30 08:44:47;;;;;;;;;;;;;;;28.10;20.15;97763.84;5081155;28;19920;-88
2023/12/30 08:47:15;;;;;;;;;;;;;;;28.53;19.78;97758.66;5074534;28;19925;-89
2023/12/30 08:49:42;;;;;;;;;;;;;;;28.15;20.46;97763.19;5068742;28;20355;-86
2023/12/30 08:52:08;;;;;;;;;;;;;;;27.91;20.38;97760.19;5064673;28;19932;-88
2023/12/30 08:54:37;;;;;;;;;;;;;;;27.02;21.22;97756.56;5065112;28;19920;-89
2023/12/30 08:57:03;;;;;;;;;;;;;;;26.62;22.24;97748.00;5075503;28;20015;-88
2023/12/30 08:59:29;;;;;;;;;;;;;;;26.68;21.22;97754.59;5069898;28;20315;-86
2023/12/30 09:01:55;;;;;;;;;;;;;;;26.20;23.10;97760.81;5064832;28;20403;-88
2023/12/30 09:04:21;;;;;;;;;;;;;;;26.57;21.97;97765.47;5078255;28;19926;-89
2023/12/30 09:06:47;;;;;;;;;;;;;;;26.40;21.76;97764.88;5069198;28;19934;-90
2023/12/30 09:09:14;;;;;;;;;;;;;;;25.49;22.83;97760.38;5072354;28;19921;-88
2023/12/30 09:11:41;;;;;;;;;;;;;;;25.84;22.50;97762.00;5068586;28;19923;-88
2023/12/30 09:14:07;;;;;;;;;;;;;;;26.11;22.06;97758.72;5052955;28;19929;-88
2023/12/30 09:16:33;;;;;;;;;;;;;;;26.12;21.83;97767.91;5069470;28;20463;-87
2023/12/30 09:18:59;;;;;;;;;;;;;;;26.23;21.80;97763.50;5062656;28;19916;-85
2023/12/30 09:21:26;;;;;;;;;;;;;;;26.50;21.58;97777.78;5044601;28;20472;-89
2023/12/30 09:23:52;;;;;;;;;;;;;;;27.35;20.83;97780.22;5067388;28;19924;-89
2023/12/30 09:26:20;;;;;;;;;;;;;;;27.34;20.62;97761.72;5068356;28;19956;-89
2023/12/30 09:28:46;;;;;;;;;;;;;;;28.10;19.87;97775.91;5069404;28;19956;-89
2023/12/30 09:31:12;;;;;;;;;;;;;;;26.92;20.90;97769.81;5069347;28;20324;-87
2023/12/30 09:33:38;;;;;;;;;;;;;;;25.78;22.15;97763.84;5052305;28;19924;-88
2023/12/30 09:36:05;;;;;;;;;;;;;;;26.48;21.37;97765.41;5069802;28;19963;-89
2023/12/30 09:38:31;;;;;;;;;;;;;;;26.06;21.95;97768.47;5067210;28;20018;-88
2023/12/30 09:40:57;;;;;;;;;;;;;;;26.62;20.99;97770.53;5069907;28;19921;-88
2023/12/30 09:43:24;;;;;;;;;;;;;;;27.08;20.82;97768.78;5070767;28;20003;-87
2023/12/30 09:45:51;;;;;;;;;;;;;;;27.39;20.77;97769.59;5068932;28;19974;-87
2023/12/30 09:48:20;;;;;;;;;;;;;;;27.06;20.70;97765.66;5065746;28;20042;-89
2023/12/30 09:50:49;;;;;;;;;;;;;;;27.29;20.47;97759.50;5069776;28;19927;-87
2023/12/30 09:53:16;;;;;;;;;;;;;;;27.11;20.71;97756.59;5068535;28;19924;-87
2023/12/30 09:55:46;;;;;;;;;;;;;;;27.44;20.71;97740.78;5062621;28;20032;-89
2023/12/30 09:58:13;;;;;;;;;;;;;;;27.68;20.00;97741.03;5064341;28;20015;-88
2023/12/30 10:00:40;;;;;;;;;;;;;;;27.46;20.07;97731.84;5067810;28;19921;-89
2023/12/30 10:03:06;;;;;;;;;;;;;;;26.29;21.09;97741.97;5070167;28;19924;-91
2023/12/30 10:05:32;;;;;;;;;;;;;;;26.64;20.81;97742.69;5070271;28;19920;-90
2023/12/30 10:07:59;;;;;;;;;;;;;;;25.78;21.64;97732.09;5067328;28;19955;-86
2023/12/30 10:10:39;;;;;;;;;;;;;;;24.87;24.28;97739.44;5065071;28;20032;-88
2023/12/30 10:13:05;;;;;;;;;;;;;;;24.90;22.65;97743.38;5044748;28;19921;-86
2023/12/30 10:15:31;;;;;;;;;;;;;;;25.34;22.22;97745.97;5062954;28;20673;-88
2023/12/30 10:17:57;;;;;;;;;;;;;;;25.17;22.30;97738.09;5062847;28;19946;-87
2023/12/30 10:20:23;;;;;;;;;;;;;;;25.67;21.66;97738.06;5044546;28;19930;-87
2023/12/30 10:22:50;;;;;;;;;;;;;;;24.62;23.12;97730.97;5063397;28;19933;-88
2023/12/30 10:25:16;;;;;;;;;;;;;;;24.70;22.70;97749.16;5064293;28;19943;-86
2023/12/30 10:27:45;;;;;;;;;;;;;;;25.29;22.07;97734.50;5065508;28;20384;-85
2023/12/30 10:30:15;;;;;;;;;;;;;;;24.15;22.98;97761.56;5064497;28;19921;-87
2023/12/30 10:32:41;;;;;;;;;;;;;;;23.26;24.77;97773.38;5063437;28;20700;-87
2023/12/30 10:35:08;;;;;;;;;;;;;;;23.76;23.73;97770.16;5063666;28;20039;-87
2023/12/30 10:37:35;;;;;;;;;;;;;;;24.58;22.61;97780.78;5062530;28;19916;-87
2023/12/30 10:40:02;;;;;;;;;;;;;;;25.33;21.98;97780.94;5047102;28;20387;-87
2023/12/30 10:42:28;;;;;;;;;;;;;;;25.14;22.15;97759.47;5060943;28;19935;-86
2023/12/30 10:44:54;;;;;;;;;;;;;;;25.75;21.60;97749.88;5065184;28;19933;-86
2023/12/30 10:47:21;;;;;;;;;;;;;;;25.72;21.30;97765.63;5068867;28;19922;-87
2023/12/30 10:49:51;;;;;;;;;;;;;;;24.67;22.38;97767.69;5069823;28;19921;-86
2023/12/30 10:52:21;;;;;;;;;;;;;;;24.59;23.27;97780.34;5069768;28;19977;-86
2023/12/30 10:54:54;;;;;;;;;;;;;;;23.62;24.45;97778.97;5069402;28;20291;-88
2023/12/30 10:57:27;;;;;;;;;;;;;;;23.19;24.07;97782.75;5065953;28;20371;-87
2023/12/30 10:59:55;;;;;;;;;;;;;;;24.70;24.23;97783.63;5068518;28;20352;-88
2023/12/30 11:02:21;;;;;;;;;;;;;;;;;;5068024;28;20130;-89
2023/12/30 11:04:48;;;;;;;;;;;;;;;24.64;22.37;97787.44;5067926;28;20444;-88
2023/12/30 11:07:15;;;;;;;;;;;;;;;24.83;23.08;97786.50;5066181;28;19940;-91
2023/12/30 11:09:42;;;;;;;;;;;;;;;24.58;26.16;97789.22;5068283;28;19920;-92
2023/12/30 11:12:09;;;;;;;;;;;;;;;26.51;21.07;97796.25;5074422;28;19928;-90
2023/12/30 11:14:36;;;;;;;;;;;;;;;25.73;21.90;97794.53;5073997;28;20343;-91
2023/12/30 11:17:02;;;;;;;;;;;;;;;26.52;21.14;97789.38;5047617;28;19920;-92
2023/12/30 11:19:29;;;;;;;;;;;;;;;25.61;22.17;97792.53;5068744;28;20403;-91
2023/12/30 11:21:57;;;;;;;;;;;;;;;24.69;27.86;97779.25;5069304;28;19925;-92
2023/12/30 11:24:23;;;;;;;;;;;;;;;24.89;22.65;97798.75;5068064;28;19962;-90
2023/12/30 11:26:52;;;;;;;;;;;;;;;24.68;24.78;97790.94;5067769;28;19952;-91
2023/12/30 11:29:19;;;;;;;;;;;;;;;25.45;22.27;97796.25;5065566;28;20011;-91
2023/12/30 11:31:46;;;;;;;;;;;;;;;25.84;25.14;97795.75;5051818;28;19935;-91
2023/12/30 11:34:14;;;;;;;;;;;;;;;24.85;24.38;97797.28;5048882;28;19920;-93
2023/12/30 11:36:41;;;;;;;;;;;;;;;23.50;28.29;97800.03;5063157;28;19925;-91
2023/12/30 11:39:07;;;;;;;;;;;;;;;23.49;24.16;97809.69;5062453;28;19943;-92
2023/12/30 11:41:34;;;;;;;;;;;;;;;24.42;25.36;97804.09;5068732;28;19920;-92
2023/12/30 11:44:02;;;;;;;;;;;;;;;22.99;25.86;97803.59;5048495;28;19925;-92
2023/12/30 11:46:29;;;;;;;;;;;;;;;22.73;24.94;97802.56;5068306;28;19962;-91
2023/12/30 11:48:59;;;;;;;;;;;;;;;22.95;26.59;97817.69;5069231;28;19928;-93
2023/12/30 11:51:26;;;;;;;;;;;;;;;23.24;25.11;97815.81;5068247;28;20333;-90
2023/12/30 11:53:53;;;;;;;;;;;;;;;22.52;25.18;97814.16;5071854;28;19925;-90
2023/12/30 11:56:19;;;;;;;;;;;;;;;23.45;24.03;97808.19;5066301;28;19929;-92
2023/12/30 11:58:45;;;;;;;;;;;;;;;24.21;23.03;97821.50;5074616;28;19966;-92
2023/12/30 12:01:12;;;;;;;;;;;;;;;24.43;22.71;97807.69;5077609;28;20023;-91
2023/12/30 12:03:38;;;;;;;;;;;;;;;25.85;21.40;97811.41;5074521;28;19940;-91
2023/12/30 12:06:05;;;;;;;;;;;;;;;24.53;22.33;97818.59;5066291;28;19924;-92
2023/12/30 12:08:31;;;;;;;;;;;;;;;23.92;24.78;97810.19;5067286;28;19920;-92
2023/12/30 12:10:57;;;;;;;;;;;;;;;23.72;23.41;97811.53;5073158;28;20081;-91
2023/12/30 12:13:23;;;;;;;;;;;;;;;25.10;22.27;97806.56;5073640;28;19927;-91
2023/12/30 12:15:53;;;;;;;;;;;;;;;24.58;25.62;97811.66;5073786;28;19921;-92
2023/12/30 12:18:20;;;;;;;;;;;;;;;23.25;29.70;97825.81;5069566;28;20367;-92
2023/12/30 12:20:46;;;;;;;;;;;;;;;24.13;24.12;97825.75;5078081;28;20426;-93
2023/12/30 12:23:12;;;;;;;;;;;;;;;25.00;22.13;97827.31;5071926;28;19928;-92
2023/12/30 12:25:38;;;;;;;;;;;;;;;24.71;22.72;97826.53;5070784;28;19974;-90
2023/12/30 12:28:09;;;;;;;;;;;;;;;23.20;30.09;97853.53;5073529;28;19998;-94
2023/12/30 12:30:35;;;;;;;;;;;;;;;20.87;30.55;97860.28;5070644;28;20284;-89
2023/12/30 12:33:01;;;;;;;;;;;;;;;19.88;33.44;97891.16;5068481;28;19928;-90
2023/12/30 12:35:27;;;;;;;;;;;;;;;19.59;34.74;97879.44;5070182;28;19924;-90
2023/12/30 12:37:53;;;;;;;;;;;;;;;19.72;36.56;97905.59;5068393;28;19924;-89
2023/12/30 12:40:19;;;;;;;;;;;;;;;19.83;36.92;97903.53;5068454;28;19928;-87
2023/12/30 12:42:45;;;;;;;;;;;;;;;19.76;35.02;97916.72;5067331;28;19946;-89